createdAt,value
2023-01-26T00:02:09.743Z,0.13
2023-01-26T00:12:15.150Z,0.12
2023-01-26T00:22:20.509Z,0.16
2023-01-26T00:32:26.131Z,0.11
2023-01-26T00:42:31.681Z,0.11
2023-01-26T00:52:36.057Z,-0.06
2023-01-26T01:02:41.502Z,-0.15
2023-01-26T01:12:47.335Z,-0.15
2023-01-26T01:22:52.215Z,-0.08
2023-01-26T01:32:58.273Z,0.03
2023-01-26T01:43:03.986Z,-0.03
2023-01-26T01:53:12.041Z,-0.17
2023-01-26T02:03:19.391Z,-0.25
2023-01-26T02:13:25.820Z,-0.28
2023-01-26T02:23:32.719Z,-0.39
2023-01-26T02:33:38.353Z,-0.30
2023-01-26T02:43:44.093Z,-0.19
2023-01-26T02:53:49.569Z,-0.17
2023-01-26T03:03:55.072Z,-0.12
2023-01-26T03:14:00.603Z,-0.11
2023-01-26T03:24:22.586Z,-0.19
2023-01-26T03:34:29.768Z,-0.25
2023-01-26T03:44:53.506Z,-0.29
2023-01-26T03:55:16.712Z,-0.34
2023-01-26T04:05:39.691Z,-0.22
2023-01-26T04:16:02.949Z,-0.19
2023-01-26T04:26:08.711Z,-0.15
2023-01-26T04:36:14.102Z,-0.17
2023-01-26T04:46:19.481Z,-0.21
2023-01-26T04:56:26.241Z,-0.38
2023-01-26T05:06:32.528Z,-0.44
2023-01-26T05:16:37.966Z,-0.54
2023-01-26T05:26:43.691Z,-0.62
2023-01-26T05:36:49.094Z,-0.67
2023-01-26T05:46:54.532Z,-0.67
2023-01-26T05:56:59.972Z,-0.57
2023-01-26T06:07:05.834Z,-0.49
2023-01-26T06:17:11.414Z,-0.55
2023-01-26T06:27:17.608Z,-0.59
2023-01-26T06:37:23.177Z,-0.71
2023-01-26T06:47:28.547Z,-0.67
2023-01-26T06:57:34.377Z,-0.64
2023-01-26T07:07:38.587Z,-0.59
2023-01-26T07:17:44.199Z,-0.49
2023-01-26T07:27:49.982Z,-0.32
2023-01-26T07:37:55.597Z,-0.40
2023-01-26T07:48:01.079Z,-0.47
2023-01-26T07:58:06.637Z,-0.44
2023-01-26T08:08:12.458Z,-0.43
2023-01-26T08:18:17.907Z,-0.40
2023-01-26T08:28:24.551Z,-0.29
2023-01-26T08:38:30.767Z,-0.16
2023-01-26T08:48:36.247Z,-0.03
2023-01-26T09:08:47.007Z,0.16
2023-01-26T09:18:53.344Z,0.21
2023-01-26T09:28:59.441Z,0.26
2023-01-26T09:39:04.008Z,0.28
2023-01-26T09:49:11.891Z,0.32
2023-01-26T09:59:17.644Z,0.41
2023-01-26T10:09:22.567Z,0.49
2023-01-26T10:19:28.856Z,0.69
2023-01-26T10:29:37.699Z,0.66
2023-01-26T10:39:47.278Z,0.60
2023-01-26T10:49:51.780Z,0.61
2023-01-26T10:59:56.215Z,0.52
2023-01-26T11:10:17.840Z,0.50
2023-01-26T11:20:40.907Z,0.58
2023-01-26T11:30:47.743Z,0.72
2023-01-26T11:40:52.263Z,0.92
2023-01-26T11:51:01.637Z,0.93
2023-01-26T12:01:06.248Z,0.88
2023-01-26T12:11:26.768Z,0.87
2023-01-26T12:21:31.610Z,0.77
2023-01-26T12:31:36.235Z,0.75
2023-01-26T12:41:50.206Z,0.75
2023-01-26T12:51:58.060Z,0.73
2023-01-26T13:02:02.367Z,0.72
2023-01-26T13:12:29.159Z,0.81
2023-01-26T13:22:39.887Z,0.90
2023-01-26T13:32:58.054Z,0.76
2023-01-26T13:43:06.027Z,0.54
2023-01-26T13:53:39.858Z,0.38
2023-01-26T14:03:45.919Z,0.38
2023-01-26T14:13:50.467Z,0.47
2023-01-26T14:23:55.514Z,0.35
2023-01-26T14:34:02.053Z,0.16
2023-01-26T14:44:06.048Z,0.11
2023-01-26T14:54:11.285Z,0.14
2023-01-26T15:04:17.471Z,0.18
2023-01-26T15:14:32.071Z,0.14
2023-01-26T15:24:37.618Z,-0.01
2023-01-26T15:34:43.882Z,-0.12
2023-01-26T15:44:49.575Z,-0.06
2023-01-26T15:54:55.064Z,0.00
2023-01-26T16:05:00.956Z,-0.10
2023-01-26T16:15:07.062Z,-0.21
2023-01-26T16:25:15.008Z,-0.31
2023-01-26T16:35:21.671Z,-0.29
2023-01-26T16:45:28.242Z,-0.23
2023-01-26T16:55:34.174Z,-0.30
2023-01-26T17:05:39.964Z,-0.37
2023-01-26T17:15:45.817Z,-0.44
2023-01-26T17:25:58.087Z,-0.47
2023-01-26T17:36:03.699Z,-0.48
2023-01-26T17:46:10.274Z,-0.45
2023-01-26T17:56:17.055Z,-0.41
2023-01-26T18:06:22.007Z,-0.41
2023-01-26T18:16:28.069Z,-0.48
2023-01-26T18:26:34.445Z,-0.55
2023-01-26T18:36:40.053Z,-0.58
2023-01-26T18:46:45.601Z,-0.52
2023-01-26T18:56:51.245Z,-0.43
2023-01-26T19:06:55.847Z,-0.34
2023-01-26T19:17:01.783Z,-0.37
2023-01-26T19:27:07.437Z,-0.53
2023-01-26T19:37:13.042Z,-0.57
2023-01-26T19:47:18.676Z,-0.59
2023-01-26T19:57:23.613Z,-0.58
2023-01-26T20:07:29.478Z,-0.52
2023-01-26T20:17:35.523Z,-0.55
2023-01-26T20:27:41.108Z,-0.61
2023-01-26T20:37:47.155Z,-0.70
2023-01-26T20:47:52.700Z,-0.70
2023-01-26T20:57:58.868Z,-0.65
2023-01-26T21:08:04.472Z,-0.62
2023-01-26T21:18:09.884Z,-0.63
2023-01-26T21:28:15.392Z,-0.71
2023-01-26T21:38:21.081Z,-0.83
2023-01-26T21:48:32.474Z,-0.91
2023-01-26T21:58:55.727Z,-0.90
2023-01-26T22:09:01.545Z,-0.80
2023-01-26T22:19:07.137Z,-0.73
2023-01-26T22:29:11.897Z,-0.80
2023-01-26T22:39:17.733Z,-0.95
2023-01-26T22:49:23.342Z,-1.03
2023-01-26T22:59:28.841Z,-1.07
2023-01-26T23:09:34.298Z,-1.04
2023-01-26T23:19:39.743Z,-1.07
2023-01-26T23:29:45.341Z,-1.03
2023-01-26T23:39:51.405Z,-1.03
2023-01-26T23:49:56.921Z,-1.13
